createdAt,value
2023-01-02T00:00:24.619Z,13.98
2023-01-02T00:05:30.149Z,13.96
2023-01-02T00:10:35.691Z,13.99
2023-01-02T00:15:41.389Z,14.02
2023-01-02T00:20:46.851Z,13.96
2023-01-02T00:25:52.239Z,13.95
2023-01-02T00:30:57.834Z,13.84
2023-01-02T00:36:08.588Z,13.90
2023-01-02T00:41:13.971Z,13.95
2023-01-02T00:46:19.544Z,13.90
2023-01-02T00:51:25.075Z,13.81
2023-01-02T00:56:30.471Z,13.81
2023-01-02T01:01:36.229Z,13.75
2023-01-02T01:06:42.029Z,13.70
2023-01-02T01:11:47.566Z,13.62
2023-01-02T01:16:52.948Z,13.57
2023-01-02T01:21:58.338Z,13.51
2023-01-02T01:27:03.791Z,13.40
2023-01-02T01:32:09.260Z,13.37
2023-01-02T01:37:15.098Z,13.32
2023-01-02T01:42:20.827Z,13.23
2023-01-02T01:47:44.070Z,13.22
2023-01-02T01:53:04.774Z,13.17
2023-01-02T01:58:15.543Z,13.13
2023-01-02T02:03:23.889Z,13.11
2023-01-02T02:08:44.157Z,13.07
2023-01-02T02:13:50.355Z,13.03
2023-01-02T02:19:21.948Z,12.96
2023-01-02T02:24:48.712Z,12.94
2023-01-02T02:30:12.320Z,12.86
2023-01-02T02:35:29.536Z,12.87
2023-01-02T02:40:57.747Z,12.93
2023-01-02T02:46:12.184Z,12.97
2023-01-02T02:51:23.842Z,13.06
2023-01-02T02:56:30.989Z,13.10
2023-01-02T03:01:38.174Z,13.14
2023-01-02T03:07:05.133Z,13.17
2023-01-02T03:12:16.810Z,13.17
2023-01-02T03:17:32.002Z,13.09
2023-01-02T03:22:40.501Z,13.09
2023-01-02T03:27:48.952Z,13.03
2023-01-02T03:32:57.386Z,13.00
2023-01-02T03:38:06.528Z,13.04
2023-01-02T03:43:17.658Z,13.06
2023-01-02T03:48:50.287Z,13.10
2023-01-02T03:53:56.049Z,13.11
2023-01-02T03:59:25.433Z,13.11
2023-01-02T04:04:58.116Z,13.11
2023-01-02T04:10:05.352Z,13.10
2023-01-02T04:15:16.159Z,13.18
2023-01-02T04:20:24.606Z,13.23
2023-01-02T04:25:33.019Z,13.23
2023-01-02T04:30:41.492Z,13.21
2023-01-02T04:35:47.059Z,13.23
2023-01-02T04:40:52.881Z,13.25
2023-01-02T04:45:58.360Z,13.29
2023-01-02T04:51:03.930Z,13.26
2023-01-02T04:56:09.707Z,13.31
2023-01-02T05:01:17.894Z,13.26
2023-01-02T05:06:23.380Z,13.30
2023-01-02T05:11:28.920Z,13.34
2023-01-02T05:16:34.379Z,13.37
2023-01-02T05:21:58.132Z,13.41
2023-01-02T05:27:03.664Z,13.42
2023-01-02T05:32:09.115Z,13.41
2023-01-02T05:37:14.576Z,13.40
2023-01-02T05:42:20.039Z,13.37
2023-01-02T05:47:26.439Z,13.48
2023-01-02T05:52:31.827Z,13.52
2023-01-02T05:57:37.360Z,13.55
2023-01-02T06:02:47.666Z,13.56
2023-01-02T06:07:50.162Z,13.59
2023-01-02T06:12:55.619Z,13.60
2023-01-02T06:18:01.460Z,13.60
2023-01-02T06:23:07.047Z,13.68
2023-01-02T06:28:12.438Z,13.68
2023-01-02T06:33:17.896Z,13.71
2023-01-02T06:38:23.280Z,13.75
2023-01-02T06:43:30.641Z,13.80
2023-01-02T06:48:36.514Z,13.95
2023-01-02T06:53:43.729Z,14.44
2023-01-02T06:58:49.644Z,14.40
2023-01-02T07:03:55.977Z,14.28
2023-01-02T07:09:01.483Z,14.17
2023-01-02T07:14:08.416Z,14.15
2023-01-02T07:19:13.881Z,14.18
2023-01-02T07:24:19.278Z,14.13
2023-01-02T07:29:24.764Z,14.23
2023-01-02T07:34:31.574Z,14.25
2023-01-02T07:39:37.023Z,14.24
2023-01-02T07:44:42.490Z,14.28
2023-01-02T07:50:01.750Z,14.26
2023-01-02T07:55:08.149Z,14.25
2023-01-02T08:00:14.536Z,14.33
2023-01-02T08:05:20.396Z,14.42
2023-01-02T08:10:25.927Z,14.40
2023-01-02T08:15:31.447Z,14.46
2023-01-02T08:20:36.909Z,14.50
2023-01-02T08:25:43.541Z,14.55
2023-01-02T08:30:49.051Z,14.56
2023-01-02T08:35:55.722Z,14.64
2023-01-02T08:41:01.384Z,14.71
2023-01-02T08:46:11.084Z,14.75
2023-01-02T08:51:16.775Z,14.77
2023-01-02T08:56:28.192Z,14.77
2023-01-02T09:01:34.816Z,14.90
2023-01-02T09:06:40.693Z,14.98
2023-01-02T09:11:52.530Z,15.03
2023-01-02T09:16:58.231Z,15.09
2023-01-02T09:22:04.384Z,15.07
2023-01-02T09:27:09.913Z,15.23
2023-01-02T09:32:15.382Z,15.31
2023-01-02T09:37:20.846Z,15.37
2023-01-02T09:42:26.603Z,15.47
2023-01-02T09:47:33.007Z,15.48
2023-01-02T09:52:47.490Z,15.55
2023-01-02T09:57:55.920Z,15.48
2023-01-02T10:03:26.736Z,15.58
2023-01-02T10:08:54.947Z,15.68
2023-01-02T10:14:20.516Z,15.78
2023-01-02T10:19:22.085Z,15.86
2023-01-02T10:24:48.617Z,16.86
2023-01-02T10:29:57.203Z,16.33
2023-01-02T10:35:08.352Z,16.31
2023-01-02T10:40:13.986Z,16.35
2023-01-02T10:45:19.613Z,16.47
2023-01-02T10:50:28.135Z,16.51
2023-01-02T10:55:36.867Z,16.55
2023-01-02T11:00:42.388Z,16.72
2023-01-02T11:06:02.093Z,16.81
2023-01-02T11:11:05.262Z,16.85
2023-01-02T11:16:14.613Z,16.82
2023-01-02T11:21:28.853Z,16.91
2023-01-02T11:26:36.152Z,16.94
2023-01-02T11:31:58.465Z,16.98
2023-01-02T11:37:06.984Z,17.01
2023-01-02T11:42:36.049Z,17.01
2023-01-02T11:47:50.779Z,17.01
2023-01-02T11:52:59.282Z,18.12
2023-01-02T11:58:10.701Z,17.39
2023-01-02T12:03:30.026Z,17.18
2023-01-02T12:08:53.376Z,17.16
2023-01-02T12:14:16.912Z,17.14
2023-01-02T12:19:42.262Z,17.16
2023-01-02T12:24:59.962Z,17.12
2023-01-02T12:30:20.506Z,17.07
2023-01-02T12:35:36.011Z,17.09
2023-01-02T12:41:13.435Z,17.09
2023-01-02T12:46:30.755Z,17.15
2023-01-02T12:51:47.481Z,17.13
2023-01-02T12:57:07.854Z,17.11
2023-01-02T13:02:32.697Z,17.05
2023-01-02T13:07:45.875Z,16.95
2023-01-02T13:12:52.417Z,16.98
2023-01-02T13:18:21.995Z,16.96
2023-01-02T13:23:36.056Z,16.98
2023-01-02T13:28:44.588Z,16.99
2023-01-02T13:33:52.717Z,16.90
2023-01-02T13:39:01.289Z,16.90
2023-01-02T13:44:07.114Z,16.92
2023-01-02T13:49:15.628Z,16.84
2023-01-02T13:54:21.654Z,16.73
2023-01-02T13:59:41.928Z,16.67
2023-01-02T14:04:38.581Z,16.73
2023-01-02T14:10:05.205Z,16.69
2023-01-02T14:15:13.689Z,16.66
2023-01-02T14:20:24.743Z,16.56
2023-01-02T14:25:32.464Z,16.55
2023-01-02T14:30:40.490Z,16.49
2023-01-02T14:35:58.629Z,16.48
2023-01-02T14:41:21.916Z,16.56
2023-01-02T14:46:29.227Z,16.38
2023-01-02T14:51:46.659Z,16.46
2023-01-02T14:56:58.087Z,16.36
2023-01-02T15:02:09.828Z,16.23
2023-01-02T15:07:24.549Z,16.23
2023-01-02T15:12:50.283Z,16.21
2023-01-02T15:17:58.730Z,16.13
2023-01-02T15:23:05.361Z,16.06
2023-01-02T15:28:34.777Z,16.04
2023-01-02T15:33:40.726Z,15.96
2023-01-02T15:38:46.858Z,15.90
2023-01-02T15:44:12.670Z,15.87
2023-01-02T15:49:18.826Z,15.84
2023-01-02T15:54:24.709Z,15.75
2023-01-02T15:59:32.749Z,15.77
2023-01-02T16:04:38.206Z,15.70
2023-01-02T16:09:46.646Z,15.56
2023-01-02T16:14:55.891Z,15.56
2023-01-02T16:20:11.926Z,15.53
2023-01-02T16:25:26.368Z,15.49
2023-01-02T16:30:40.825Z,15.39
2023-01-02T16:35:48.195Z,15.31
2023-01-02T16:41:05.192Z,15.19
2023-01-02T16:46:14.037Z,15.16
2023-01-02T16:51:19.611Z,15.16
2023-01-02T16:56:25.156Z,15.11
2023-01-02T17:01:31.569Z,15.07
2023-01-02T17:06:37.361Z,15.04
2023-01-02T17:11:44.916Z,14.97
2023-01-02T17:16:50.437Z,14.97
2023-01-02T17:21:55.958Z,14.85
2023-01-02T17:27:01.587Z,14.76
2023-01-02T17:32:07.410Z,14.61
2023-01-02T17:37:12.948Z,14.19
2023-01-02T17:42:18.420Z,13.95
2023-01-02T17:47:58.298Z,13.94
2023-01-02T17:52:32.001Z,13.71
2023-01-02T17:57:39.637Z,13.66
2023-01-02T18:02:45.372Z,13.59
2023-01-02T18:07:51.145Z,13.43
2023-01-02T18:12:56.668Z,13.39
2023-01-02T18:18:05.114Z,13.34
2023-01-02T18:23:15.138Z,13.28
2023-01-02T18:28:26.185Z,13.22
2023-01-02T18:33:33.203Z,13.15
2023-01-02T18:38:41.600Z,13.08
2023-01-02T18:43:49.791Z,13.03
2023-01-02T18:48:55.303Z,12.92
2023-01-02T18:54:00.937Z,12.73
2023-01-02T18:59:25.976Z,12.56
2023-01-02T19:04:34.447Z,12.37
2023-01-02T19:09:40.079Z,12.24
2023-01-02T19:14:46.015Z,12.18
2023-01-02T19:19:52.151Z,12.12
2023-01-02T19:25:05.222Z,12.04
2023-01-02T19:30:31.139Z,12.02
2023-01-02T19:35:40.036Z,11.98
2023-01-02T19:40:45.502Z,11.82
2023-01-02T19:45:51.434Z,11.79
2023-01-02T19:50:57.079Z,11.78
2023-01-02T19:56:02.498Z,11.70
2023-01-02T20:01:08.183Z,11.72
2023-01-02T20:06:13.672Z,11.74
2023-01-02T20:11:26.368Z,11.67
2023-01-02T20:16:32.171Z,11.64
2023-01-02T20:21:37.636Z,12.67
2023-01-02T20:26:43.117Z,11.90
2023-01-02T20:31:49.317Z,11.73
2023-01-02T20:36:55.042Z,11.60
2023-01-02T20:42:00.546Z,11.55
2023-01-02T20:47:06.172Z,11.46
2023-01-02T20:52:11.933Z,11.36
2023-01-02T20:57:18.511Z,11.28
2023-01-02T21:02:24.245Z,11.30
2023-01-02T21:07:29.876Z,11.23
2023-01-02T21:12:53.063Z,11.24
2023-01-02T21:17:58.548Z,11.25
2023-01-02T21:23:04.325Z,11.68
2023-01-02T21:28:11.589Z,11.76
2023-01-02T21:33:19.521Z,11.53
2023-01-02T21:38:26.619Z,11.39
2023-01-02T21:43:32.131Z,11.27
2023-01-02T21:48:38.355Z,11.23
2023-01-02T21:53:44.225Z,11.16
2023-01-02T21:58:49.873Z,11.07
2023-01-02T22:03:57.093Z,11.03
2023-01-02T22:09:03.208Z,11.00
2023-01-02T22:14:08.819Z,10.98
2023-01-02T22:19:14.503Z,10.92
2023-01-02T22:24:22.950Z,10.88
2023-01-02T22:30:00.556Z,10.86
2023-01-02T22:34:38.752Z,10.78
2023-01-02T22:39:44.281Z,10.80
2023-01-02T22:44:51.125Z,10.77
2023-01-02T22:49:57.557Z,10.75
2023-01-02T22:55:09.020Z,10.78
2023-01-02T23:00:15.305Z,10.82
2023-01-02T23:05:22.332Z,10.82
2023-01-02T23:10:27.849Z,10.88
2023-01-02T23:15:33.322Z,10.81
2023-01-02T23:20:38.764Z,10.84
2023-01-02T23:25:44.907Z,10.86
2023-01-02T23:30:50.303Z,10.94
2023-01-02T23:35:55.847Z,10.87
2023-01-02T23:41:04.665Z,10.78
2023-01-02T23:46:10.121Z,10.80
2023-01-02T23:51:15.845Z,10.77
2023-01-02T23:56:27.237Z,10.79
